createdAt,value
2017-04-18T00:09:14.119Z,0
2017-04-18T00:19:14.190Z,0
2017-04-18T00:29:14.119Z,0
2017-04-18T00:39:14.219Z,0
2017-04-18T00:49:14.129Z,0
2017-04-18T00:59:14.478Z,0
2017-04-18T01:09:14.175Z,0
2017-04-18T01:19:14.207Z,0
2017-04-18T01:29:14.192Z,0
2017-04-18T01:39:14.321Z,0
2017-04-18T01:49:14.283Z,0
2017-04-18T01:59:14.244Z,0
2017-04-18T02:09:14.302Z,0
2017-04-18T02:19:14.248Z,0
2017-04-18T02:29:14.320Z,0
2017-04-18T02:39:14.302Z,0
2017-04-18T02:49:14.208Z,0
2017-04-18T02:59:14.289Z,0
2017-04-18T03:09:14.275Z,0
2017-04-18T03:19:14.310Z,0
2017-04-18T03:29:14.302Z,0
2017-04-18T03:39:14.245Z,0
2017-04-18T03:49:14.315Z,0
2017-04-18T03:59:14.248Z,8
2017-04-18T04:09:14.318Z,36
2017-04-18T04:19:14.282Z,124
2017-04-18T04:29:14.358Z,316
2017-04-18T04:39:14.315Z,640
2017-04-18T04:49:14.381Z,1016
2017-04-18T04:59:14.336Z,1408
2017-04-18T05:09:14.416Z,2048
2017-04-18T05:19:14.347Z,2344
2017-04-18T05:29:22.987Z,2632
2017-04-18T05:39:14.372Z,3788
2017-04-18T05:49:14.344Z,4284
2017-04-18T05:59:14.422Z,6224
2017-04-18T06:09:14.368Z,5832
2017-04-18T06:19:14.422Z,6340
2017-04-18T06:29:14.378Z,5380
2017-04-18T06:39:14.457Z,5432
2017-04-18T06:49:14.513Z,6940
2017-04-18T06:59:14.460Z,6824
2017-04-18T07:09:14.478Z,5616
2017-04-18T07:19:14.503Z,9400
2017-04-18T07:29:14.465Z,11108
2017-04-18T07:39:14.538Z,20384
2017-04-18T07:49:14.514Z,17192
2017-04-18T07:59:14.441Z,47136
2017-04-18T08:09:14.450Z,15216
2017-04-18T08:19:15.934Z,10020
2017-04-18T08:29:14.460Z,10676
2017-04-18T08:39:14.557Z,8552
2017-04-18T08:49:14.519Z,8856
2017-04-18T08:59:14.485Z,13328
2017-04-18T09:09:14.522Z,3184
2017-04-18T09:19:14.556Z,12768
2017-04-18T09:29:14.512Z,19456
2017-04-18T09:39:14.532Z,13152
2017-04-18T09:49:14.585Z,22880
2017-04-18T09:59:14.547Z,17868
2017-04-18T10:09:14.569Z,8292
2017-04-18T10:19:14.567Z,7024
2017-04-18T10:29:14.553Z,18816
2017-04-18T10:39:14.578Z,7564
2017-04-18T10:49:14.673Z,13864
2017-04-18T10:59:14.687Z,14188
2017-04-18T11:09:14.632Z,18268
2017-04-18T11:19:14.927Z,16196
2017-04-18T11:29:14.746Z,6564
2017-04-18T11:39:14.631Z,10140
2017-04-18T11:49:14.668Z,19424
2017-04-18T11:59:14.682Z,18076
2017-04-18T12:09:14.769Z,14316
2017-04-18T12:19:14.750Z,3312
2017-04-18T12:29:16.335Z,2544
2017-04-18T12:39:18.560Z,2212
2017-04-18T12:49:14.839Z,2328
2017-04-18T13:07:33.426Z,6732
2017-04-18T13:17:33.125Z,4872
2017-04-18T13:27:33.436Z,6464
2017-04-18T13:37:33.214Z,12816
2017-04-18T13:47:33.201Z,3368
2017-04-18T13:57:33.194Z,8344
2017-04-18T14:07:33.167Z,4360
2017-04-18T14:17:33.281Z,3836
2017-04-18T14:27:33.215Z,4384
2017-04-18T14:37:33.211Z,10172
2017-04-18T14:47:33.104Z,6964
2017-04-18T14:57:33.338Z,11196
2017-04-18T15:07:33.134Z,6264
2017-04-18T15:17:33.078Z,8568
2017-04-18T15:27:33.160Z,8176
2017-04-18T15:37:33.137Z,7068
2017-04-18T15:47:33.404Z,7356
2017-04-18T15:57:33.175Z,7352
2017-04-18T16:07:33.197Z,4532
2017-04-18T16:17:33.179Z,5320
2017-04-18T16:27:33.173Z,3648
2017-04-18T16:37:33.090Z,3204
2017-04-18T16:47:33.392Z,2740
2017-04-18T16:57:33.113Z,2572
2017-04-18T17:07:33.185Z,2012
2017-04-18T17:17:33.307Z,2296
2017-04-18T17:27:33.086Z,1428
2017-04-18T17:37:33.172Z,1424
2017-04-18T17:47:33.383Z,1708
2017-04-18T17:57:33.087Z,1164
2017-04-18T18:07:33.145Z,820
2017-04-18T18:17:33.116Z,520
2017-04-18T18:27:33.174Z,256
2017-04-18T18:37:33.118Z,88
2017-04-18T18:47:33.107Z,20
2017-04-18T18:57:33.193Z,4
2017-04-18T19:07:33.303Z,4
2017-04-18T19:17:33.088Z,0
2017-04-18T19:27:33.251Z,0
2017-04-18T19:37:33.176Z,0
2017-04-18T19:47:33.080Z,0
2017-04-18T19:57:33.157Z,0
2017-04-18T20:07:33.108Z,0
2017-04-18T20:17:33.173Z,0
2017-04-18T20:27:33.251Z,0
2017-04-18T20:37:33.223Z,0
2017-04-18T20:47:33.166Z,0
2017-04-18T20:57:33.171Z,0
2017-04-18T21:07:33.180Z,0
2017-04-18T21:17:33.335Z,0
2017-04-18T21:27:33.391Z,0
2017-04-18T21:37:33.465Z,0
2017-04-18T21:47:33.381Z,0
2017-04-18T21:57:33.483Z,0
2017-04-18T22:07:33.263Z,0
2017-04-18T22:17:33.785Z,4
2017-04-18T22:27:33.489Z,4
2017-04-18T22:37:33.192Z,0
2017-04-18T22:47:33.300Z,0
2017-04-18T22:57:33.299Z,0
2017-04-18T23:07:33.177Z,0
2017-04-18T23:17:33.144Z,0
2017-04-18T23:27:33.202Z,0
2017-04-18T23:37:33.489Z,0
2017-04-18T23:47:33.236Z,0
2017-04-18T23:57:33.190Z,0
